createdAt,value
2019-02-15T00:07:06.926Z,99.00
2019-02-15T00:22:11.884Z,99.00
2019-02-15T00:37:16.847Z,99.20
2019-02-15T00:52:23.613Z,99.20
2019-02-15T01:07:30.040Z,99.30
2019-02-15T01:22:35.051Z,99.20
2019-02-15T01:37:41.583Z,98.90
2019-02-15T01:52:46.386Z,98.60
2019-02-15T02:07:51.694Z,98.30
2019-02-15T02:22:56.555Z,98.30
2019-02-15T02:38:01.302Z,98.70
2019-02-15T02:53:06.151Z,99.00
2019-02-15T03:08:11.027Z,99.50
2019-02-15T03:23:15.973Z,99.90
2019-02-15T03:38:22.318Z,99.90
2019-02-15T03:53:27.138Z,99.90
2019-02-15T04:08:31.862Z,99.90
2019-02-15T04:23:36.594Z,99.90
2019-02-15T04:38:41.323Z,99.90
2019-02-15T04:53:45.959Z,99.90
2019-02-15T05:08:50.889Z,99.90
2019-02-15T05:23:55.439Z,99.90
2019-02-15T05:39:00.395Z,99.90
2019-02-15T05:54:05.098Z,99.90
2019-02-15T06:09:09.984Z,99.90
2019-02-15T06:24:14.907Z,99.90
2019-02-15T06:39:19.725Z,99.90
2019-02-15T06:54:24.864Z,99.90
2019-02-15T07:09:30.029Z,99.90
2019-02-15T07:24:34.853Z,99.90
2019-02-15T07:39:39.601Z,99.90
2019-02-15T07:54:44.218Z,99.90
2019-02-15T08:09:49.117Z,99.90
2019-02-15T08:24:54.067Z,99.90
2019-02-15T08:39:58.849Z,99.90
2019-02-15T08:55:07.045Z,99.90
2019-02-15T09:10:13.030Z,99.90
2019-02-15T09:25:17.503Z,99.90
2019-02-15T09:40:22.240Z,99.90
2019-02-15T09:55:27.227Z,99.50
2019-02-15T10:10:32.377Z,99.10
2019-02-15T10:25:36.860Z,98.50
2019-02-15T10:40:41.495Z,98.50
2019-02-15T10:55:46.433Z,98.40
2019-02-15T11:10:51.190Z,97.90
2019-02-15T11:25:55.930Z,97.40
2019-02-15T11:41:01.340Z,97.70
2019-02-15T11:56:05.814Z,97.40
2019-02-15T12:11:11.856Z,97.30
2019-02-15T12:26:16.489Z,97.90
2019-02-15T12:41:20.966Z,97.30
2019-02-15T12:56:25.605Z,97.00
2019-02-15T13:11:30.567Z,97.80
2019-02-15T13:26:35.446Z,96.60
2019-02-15T13:41:40.319Z,97.50
2019-02-15T13:56:45.237Z,97.50
2019-02-15T14:11:50.205Z,98.00
2019-02-15T14:26:55.060Z,97.60
2019-02-15T14:41:59.924Z,97.40
2019-02-15T14:57:04.683Z,97.70
2019-02-15T15:12:09.444Z,97.60
2019-02-15T15:27:14.278Z,97.60
2019-02-15T15:42:19.333Z,98.20
2019-02-15T15:57:24.440Z,98.00
2019-02-15T16:12:29.213Z,98.50
2019-02-15T16:27:34.111Z,98.80
2019-02-15T16:42:38.894Z,98.70
2019-02-15T16:57:43.530Z,99.20
2019-02-15T17:12:48.524Z,99.80
2019-02-15T17:27:53.525Z,99.90
2019-02-15T17:42:58.883Z,99.90
2019-02-15T17:58:03.677Z,99.90
2019-02-15T18:13:08.568Z,99.90
2019-02-15T18:28:13.413Z,99.90
2019-02-15T18:43:17.982Z,99.90
2019-02-15T18:58:22.548Z,99.90
2019-02-15T19:13:27.268Z,99.90
2019-02-15T19:28:32.152Z,99.90
2019-02-15T19:43:36.937Z,99.90
2019-02-15T19:58:43.800Z,99.90
2019-02-15T20:13:49.849Z,99.90
2019-02-15T20:28:55.167Z,99.20
2019-02-15T20:44:00.230Z,98.90
2019-02-15T20:59:04.958Z,99.40
2019-02-15T21:14:09.539Z,99.60
2019-02-15T21:29:14.465Z,98.40
2019-02-15T21:44:23.172Z,99.20
2019-02-15T21:59:28.455Z,99.40
2019-02-15T22:14:34.649Z,99.10
2019-02-15T22:29:39.852Z,99.40
2019-02-15T22:44:44.804Z,99.10
2019-02-15T22:59:49.680Z,99.40
2019-02-15T23:14:54.449Z,99.40
2019-02-15T23:29:59.288Z,99.40
2019-02-15T23:45:04.052Z,99.80
